createdAt,value
2023-07-02T00:02:17.109Z,100108.41
2023-07-02T00:04:44.307Z,100105.72
2023-07-02T00:07:10.869Z,100106.66
2023-07-02T00:09:38.146Z,100105.78
2023-07-02T00:12:04.941Z,100110.63
2023-07-02T00:14:31.451Z,100104.59
2023-07-02T00:16:58.199Z,100108.91
2023-07-02T00:19:24.657Z,100114.13
2023-07-02T00:21:51.193Z,100105.69
2023-07-02T00:24:17.629Z,100104.69
2023-07-02T00:26:44.130Z,100103.06
2023-07-02T00:29:10.563Z,100113.47
2023-07-02T00:31:37.186Z,100106.19
2023-07-02T00:34:05.133Z,100113.72
2023-07-02T00:36:32.730Z,100103.75
2023-07-02T00:38:59.842Z,100105.34
2023-07-02T00:41:27.808Z,100109.81
2023-07-02T00:43:55.633Z,100103.63
2023-07-02T00:46:26.230Z,100108.03
2023-07-02T00:48:54.200Z,100110.41
2023-07-02T00:51:25.404Z,100106.69
2023-07-02T00:53:53.827Z,100102.94
2023-07-02T00:56:20.416Z,100104.13
2023-07-02T00:58:49.356Z,100100.91
2023-07-02T01:01:17.667Z,100103.41
2023-07-02T01:04:01.681Z,100110.34
2023-07-02T01:06:33.848Z,100100.66
2023-07-02T01:09:03.003Z,100097.44
2023-07-02T01:11:32.512Z,100094.16
2023-07-02T01:14:06.537Z,100096.56
2023-07-02T01:16:35.154Z,100106.03
2023-07-02T01:19:05.887Z,100100.25
2023-07-02T01:21:33.523Z,100098.31
2023-07-02T01:24:03.710Z,100099.28
2023-07-02T01:26:34.930Z,100095.34
2023-07-02T01:29:22.194Z,100093.44
2023-07-02T01:31:49.115Z,100091.88
2023-07-02T01:34:16.080Z,100095.75
2023-07-02T01:36:42.898Z,100097.09
2023-07-02T01:39:09.456Z,100101.78
2023-07-02T01:41:50.506Z,100096.28
2023-07-02T01:44:17.087Z,100096.56
2023-07-02T01:46:44.418Z,100094.97
2023-07-02T01:49:10.872Z,100097.09
2023-07-02T01:51:37.321Z,100097.97
2023-07-02T01:54:03.959Z,100101.53
2023-07-02T01:56:30.531Z,100099.88
2023-07-02T01:58:56.995Z,100096.31
2023-07-02T02:01:23.532Z,100103.31
2023-07-02T02:03:50.068Z,100106.00
2023-07-02T02:06:16.565Z,100114.63
2023-07-02T02:08:43.045Z,100105.09
2023-07-02T02:11:09.544Z,100111.03
2023-07-02T02:13:36.131Z,100108.81
2023-07-02T02:16:02.671Z,100106.06
2023-07-02T02:18:29.194Z,100111.00
2023-07-02T02:20:55.662Z,100108.69
2023-07-02T02:23:22.187Z,100107.03
2023-07-02T02:25:48.706Z,100115.03
2023-07-02T02:28:15.191Z,100113.66
2023-07-02T02:30:41.640Z,100120.41
2023-07-02T02:33:08.091Z,100117.84
2023-07-02T02:35:34.537Z,100117.13
2023-07-02T02:38:04.591Z,100123.97
2023-07-02T02:40:31.293Z,100114.06
2023-07-02T02:42:57.776Z,100120.16
2023-07-02T02:45:24.369Z,100120.28
2023-07-02T02:47:50.870Z,100122.06
2023-07-02T02:50:17.425Z,100117.94
2023-07-02T02:52:44.170Z,100123.22
2023-07-02T02:55:11.964Z,100125.88
2023-07-02T02:57:38.483Z,100131.69
2023-07-02T03:00:06.113Z,100130.00
2023-07-02T03:02:32.771Z,100134.28
2023-07-02T03:05:03.315Z,100134.34
2023-07-02T03:07:30.328Z,100135.50
2023-07-02T03:09:56.771Z,100131.03
2023-07-02T03:12:25.809Z,100126.31
2023-07-02T03:14:55.538Z,100129.81
2023-07-02T03:17:22.928Z,100125.56
2023-07-02T03:19:49.816Z,100124.16
2023-07-02T03:22:16.597Z,100120.56
2023-07-02T03:24:43.043Z,100128.13
2023-07-02T03:27:09.614Z,100119.44
2023-07-02T03:29:36.819Z,100120.50
2023-07-02T03:32:03.356Z,100128.25
2023-07-02T03:34:29.803Z,100131.66
2023-07-02T03:36:56.244Z,100129.91
2023-07-02T03:39:22.837Z,100132.31
2023-07-02T03:41:49.343Z,100129.53
2023-07-02T03:44:15.913Z,100136.16
2023-07-02T03:46:42.471Z,100138.28
2023-07-02T03:49:09.146Z,100135.66
2023-07-02T03:51:35.668Z,100142.75
2023-07-02T03:54:02.288Z,100146.13
2023-07-02T03:56:28.756Z,100141.75
2023-07-02T03:58:55.278Z,100146.19
2023-07-02T04:01:21.795Z,100148.91
2023-07-02T04:03:53.403Z,100148.84
2023-07-02T04:06:20.285Z,100148.66
2023-07-02T04:08:47.034Z,100154.03
2023-07-02T04:11:13.770Z,100152.38
2023-07-02T04:13:41.017Z,100158.47
2023-07-02T04:16:08.023Z,100170.31
2023-07-02T04:18:34.630Z,100164.56
2023-07-02T04:21:02.612Z,100163.03
2023-07-02T04:23:29.219Z,100180.78
2023-07-02T04:26:04.082Z,100177.69
2023-07-02T04:28:42.742Z,100176.13
2023-07-02T04:31:09.252Z,100175.34
2023-07-02T04:33:37.186Z,100183.00
2023-07-02T04:36:04.869Z,100179.66
2023-07-02T04:38:31.530Z,100186.09
2023-07-02T04:41:06.223Z,100186.28
2023-07-02T04:43:34.222Z,100194.72
2023-07-02T04:46:01.777Z,100191.31
2023-07-02T04:48:28.876Z,100190.13
2023-07-02T04:50:55.407Z,100193.66
2023-07-02T04:53:21.852Z,100195.78
2023-07-02T04:55:48.322Z,100187.59
2023-07-02T04:58:14.852Z,100194.22
2023-07-02T05:00:41.309Z,100185.75
2023-07-02T05:03:10.679Z,100187.22
2023-07-02T05:05:37.176Z,100191.69
2023-07-02T05:08:05.876Z,100198.50
2023-07-02T05:10:32.673Z,100195.09
2023-07-02T05:12:59.138Z,100193.75
2023-07-02T05:15:27.846Z,100194.09
2023-07-02T05:17:54.735Z,100194.56
2023-07-02T05:20:33.394Z,100193.78
2023-07-02T05:22:59.947Z,100200.16
2023-07-02T05:25:26.423Z,100197.53
2023-07-02T05:27:54.056Z,100195.94
2023-07-02T05:30:20.740Z,100196.63
2023-07-02T05:32:47.203Z,100195.31
2023-07-02T05:35:13.840Z,100205.09
2023-07-02T05:37:43.145Z,100198.97
2023-07-02T05:40:09.966Z,100195.25
2023-07-02T05:42:45.867Z,100195.50
2023-07-02T05:45:13.201Z,100193.13
2023-07-02T05:47:39.990Z,100195.50
2023-07-02T05:50:08.425Z,100200.50
2023-07-02T05:52:37.188Z,100198.03
2023-07-02T05:55:04.412Z,100204.28
2023-07-02T05:57:41.080Z,100204.94
2023-07-02T06:00:17.085Z,100208.75
2023-07-02T06:02:44.055Z,100221.31
2023-07-02T06:05:13.966Z,100205.09
2023-07-02T06:07:40.492Z,100210.91
2023-07-02T06:10:12.216Z,100217.53
2023-07-02T06:12:39.553Z,100217.00
2023-07-02T06:15:06.543Z,100218.31
2023-07-02T06:17:35.347Z,100226.78
2023-07-02T06:20:05.837Z,100227.19
2023-07-02T06:22:32.525Z,100233.31
2023-07-02T06:25:05.999Z,100225.81
2023-07-02T06:27:32.961Z,100238.31
2023-07-02T06:29:59.518Z,100238.53
2023-07-02T06:32:33.850Z,100241.88
2023-07-02T06:35:00.744Z,100245.09
2023-07-02T06:37:33.791Z,100238.19
2023-07-02T06:40:00.775Z,100248.94
2023-07-02T06:42:39.178Z,100250.19
2023-07-02T06:45:07.593Z,100246.84
2023-07-02T06:47:43.499Z,100249.41
2023-07-02T06:50:10.088Z,100248.59
2023-07-02T06:52:37.541Z,100246.19
2023-07-02T06:55:05.569Z,100244.47
2023-07-02T06:57:32.029Z,100246.66
2023-07-02T07:00:00.476Z,100250.16
2023-07-02T07:02:28.199Z,100252.69
2023-07-02T07:04:54.769Z,100259.59
2023-07-02T07:07:21.569Z,100249.25
2023-07-02T07:09:48.104Z,100260.84
2023-07-02T07:12:14.533Z,100254.00
2023-07-02T07:14:41.001Z,100261.41
2023-07-02T07:17:07.646Z,100255.22
2023-07-02T07:19:34.129Z,100264.13
2023-07-02T07:22:00.704Z,100262.16
2023-07-02T07:24:27.169Z,100259.25
2023-07-02T07:26:53.653Z,100266.75
2023-07-02T07:29:20.228Z,100267.34
2023-07-02T07:31:47.481Z,100270.25
2023-07-02T07:34:14.067Z,100270.03
2023-07-02T07:36:40.597Z,100271.00
2023-07-02T07:39:07.135Z,100274.75
2023-07-02T07:41:33.798Z,100267.25
2023-07-02T07:44:01.139Z,100269.03
2023-07-02T07:46:27.601Z,100267.09
2023-07-02T07:48:55.093Z,100264.91
2023-07-02T07:51:21.570Z,100265.13
2023-07-02T07:53:48.014Z,100266.88
2023-07-02T07:56:14.464Z,100268.69
2023-07-02T07:58:40.972Z,100271.53
2023-07-02T08:01:07.522Z,100268.09
2023-07-02T08:03:34.017Z,100280.25
2023-07-02T08:06:00.542Z,100275.25
2023-07-02T08:08:27.038Z,100275.75
2023-07-02T08:10:53.603Z,100278.06
2023-07-02T08:13:20.071Z,100273.19
2023-07-02T08:15:46.553Z,100279.72
2023-07-02T08:18:14.349Z,100277.31
2023-07-02T08:20:40.908Z,100283.69
2023-07-02T08:23:07.393Z,100290.50
2023-07-02T08:25:33.910Z,100289.44
2023-07-02T08:28:00.495Z,100287.69
2023-07-02T08:30:27.094Z,100291.19
2023-07-02T08:32:55.363Z,100288.50
2023-07-02T08:35:22.056Z,100284.56
2023-07-02T08:37:49.781Z,100285.38
2023-07-02T08:40:20.273Z,100295.03
2023-07-02T08:42:50.852Z,100282.44
2023-07-02T08:45:17.938Z,100291.69
2023-07-02T08:47:48.900Z,100288.06
2023-07-02T08:50:15.484Z,100289.00
2023-07-02T08:52:43.908Z,100287.91
2023-07-02T08:55:10.482Z,100285.75
2023-07-02T08:57:37.384Z,100287.84
2023-07-02T09:00:11.302Z,100286.81
2023-07-02T09:02:37.958Z,100290.16
2023-07-02T09:05:05.574Z,100283.34
2023-07-02T09:07:32.207Z,100290.88
2023-07-02T09:09:58.820Z,100289.75
2023-07-02T09:12:30.691Z,100287.00
2023-07-02T09:15:07.655Z,100289.94
2023-07-02T09:17:38.030Z,100284.09
2023-07-02T09:20:09.106Z,100292.34
2023-07-02T09:22:36.517Z,100289.31
2023-07-02T09:25:03.866Z,100282.16
2023-07-02T09:27:37.592Z,100281.88
2023-07-02T09:30:16.542Z,100285.31
2023-07-02T09:32:44.677Z,100282.84
2023-07-02T09:35:11.709Z,100286.53
2023-07-02T09:37:40.277Z,100285.75
2023-07-02T09:40:10.152Z,100286.69
2023-07-02T09:42:39.533Z,100277.41
2023-07-02T09:45:09.557Z,100273.84
2023-07-02T09:47:46.338Z,100280.00
2023-07-02T09:50:15.785Z,100276.28
2023-07-02T09:52:42.960Z,100277.16
2023-07-02T09:55:12.229Z,100274.06
2023-07-02T09:57:40.710Z,100279.31
2023-07-02T10:00:08.923Z,100274.44
2023-07-02T10:02:37.107Z,100268.09
2023-07-02T10:05:04.098Z,100270.53
2023-07-02T10:07:33.311Z,100271.47
2023-07-02T10:09:59.987Z,100270.09
2023-07-02T10:12:27.717Z,100273.47
2023-07-02T10:14:56.213Z,100266.06
2023-07-02T10:17:30.267Z,100261.50
2023-07-02T10:19:58.786Z,100264.22
2023-07-02T10:22:25.358Z,100265.97
2023-07-02T10:24:58.522Z,100265.00
2023-07-02T10:27:42.021Z,100271.00
2023-07-02T10:30:10.751Z,100263.63
2023-07-02T10:32:39.585Z,100262.88
2023-07-02T10:35:19.551Z,100270.94
2023-07-02T10:37:46.722Z,100265.13
2023-07-02T10:40:14.224Z,100258.75
2023-07-02T10:42:51.818Z,100266.50
2023-07-02T10:45:19.591Z,100260.31
2023-07-02T10:47:47.205Z,100257.69
2023-07-02T10:50:18.152Z,100253.63
2023-07-02T10:52:44.780Z,100254.31
2023-07-02T10:55:11.295Z,100256.94
2023-07-02T10:57:37.721Z,100253.00
2023-07-02T11:00:09.144Z,100258.84
2023-07-02T11:02:37.540Z,100259.81
2023-07-02T11:05:08.548Z,100258.16
2023-07-02T11:07:38.161Z,100259.09
2023-07-02T11:10:05.637Z,100260.53
2023-07-02T11:12:35.148Z,100258.34
2023-07-02T11:15:21.600Z,100248.84
2023-07-02T11:17:48.268Z,100261.00
2023-07-02T11:20:19.894Z,100245.06
2023-07-02T11:22:49.240Z,100248.75
2023-07-02T11:25:23.247Z,100252.41
2023-07-02T11:27:49.892Z,100244.59
2023-07-02T11:30:17.109Z,100251.78
2023-07-02T11:32:52.334Z,100249.28
2023-07-02T11:35:20.281Z,100246.56
2023-07-02T11:37:47.522Z,100245.72
2023-07-02T11:40:20.243Z,100244.56
2023-07-02T11:42:49.105Z,100244.13
2023-07-02T11:45:15.712Z,100243.66
2023-07-02T11:47:42.382Z,100239.97
2023-07-02T11:50:24.736Z,100240.81
2023-07-02T11:52:56.164Z,100227.47
2023-07-02T11:55:23.100Z,100234.50
2023-07-02T11:57:50.857Z,100239.41
2023-07-02T12:00:17.777Z,100231.81
2023-07-02T12:02:44.414Z,100231.88
2023-07-02T12:05:13.069Z,100231.22
2023-07-02T12:07:40.065Z,100236.66
2023-07-02T12:10:08.469Z,100232.25
2023-07-02T12:12:36.792Z,100226.22
2023-07-02T12:15:03.880Z,100239.41
2023-07-02T12:17:36.939Z,100236.47
2023-07-02T12:20:04.249Z,100236.22
2023-07-02T12:22:30.787Z,100236.94
2023-07-02T12:24:58.565Z,100233.34
2023-07-02T12:27:28.192Z,100226.50
2023-07-02T12:29:54.842Z,100226.66
2023-07-02T12:32:21.913Z,100229.34
2023-07-02T12:34:51.302Z,100238.22
2023-07-02T12:37:20.034Z,100226.91
2023-07-02T12:39:46.910Z,100229.34
2023-07-02T12:42:13.765Z,100226.59
2023-07-02T12:44:50.084Z,100228.34
2023-07-02T12:47:16.728Z,100224.09
2023-07-02T12:49:43.187Z,100219.72
2023-07-02T12:52:09.672Z,100226.75
2023-07-02T12:54:36.200Z,100215.47
2023-07-02T12:57:11.776Z,100228.88
2023-07-02T12:59:38.551Z,100217.47
2023-07-02T13:02:22.644Z,100218.31
2023-07-02T13:04:49.889Z,100220.16
2023-07-02T13:07:17.154Z,100219.38
2023-07-02T13:09:43.891Z,100215.72
2023-07-02T13:12:12.242Z,100209.50
2023-07-02T13:14:39.784Z,100209.41
2023-07-02T13:17:06.608Z,100211.22
2023-07-02T13:19:39.510Z,100204.19
2023-07-02T13:22:06.440Z,100208.59
2023-07-02T13:24:38.970Z,100203.25
2023-07-02T13:27:10.214Z,100201.47
2023-07-02T13:29:36.979Z,100204.00
2023-07-02T13:32:15.279Z,100202.28
2023-07-02T13:34:41.745Z,100191.72
2023-07-02T13:37:09.304Z,100202.44
2023-07-02T13:39:35.813Z,100200.66
2023-07-02T13:42:02.545Z,100205.09
2023-07-02T13:44:29.242Z,100191.91
2023-07-02T13:46:56.562Z,100200.66
2023-07-02T13:49:23.312Z,100199.75
2023-07-02T13:51:53.036Z,100196.13
2023-07-02T13:54:20.068Z,100192.50
2023-07-02T13:56:50.236Z,100189.97
2023-07-02T13:59:18.689Z,100184.75
2023-07-02T14:01:52.453Z,100178.59
2023-07-02T14:04:20.684Z,100182.13
2023-07-02T14:06:47.460Z,100182.09
2023-07-02T14:09:14.379Z,100172.38
2023-07-02T14:11:42.649Z,100178.56
2023-07-02T14:14:10.052Z,100172.38
2023-07-02T14:16:36.893Z,100168.81
2023-07-02T14:19:09.623Z,100171.53
2023-07-02T14:21:36.480Z,100171.50
2023-07-02T14:24:03.256Z,100167.00
2023-07-02T14:26:31.099Z,100167.84
2023-07-02T14:28:59.258Z,100167.06
2023-07-02T14:31:25.882Z,100165.34
2023-07-02T14:33:52.432Z,100160.00
2023-07-02T14:36:19.277Z,100156.47
2023-07-02T14:38:46.019Z,100159.19
2023-07-02T14:41:12.518Z,100163.59
2023-07-02T14:43:39.232Z,100159.13
2023-07-02T14:46:05.864Z,100152.06
2023-07-02T14:48:32.764Z,100150.34
2023-07-02T14:51:01.028Z,100153.00
2023-07-02T14:53:28.652Z,100154.78
2023-07-02T14:56:03.395Z,100156.56
2023-07-02T14:58:32.596Z,100153.97
2023-07-02T15:01:00.044Z,100150.47
2023-07-02T15:03:28.162Z,100154.00
2023-07-02T15:05:55.490Z,100146.91
2023-07-02T15:08:22.567Z,100150.44
2023-07-02T15:10:55.822Z,100148.59
2023-07-02T15:13:24.916Z,100148.59
2023-07-02T15:15:52.410Z,100140.59
2023-07-02T15:18:21.123Z,100146.75
2023-07-02T15:20:51.853Z,100148.50
2023-07-02T15:23:18.367Z,100152.03
2023-07-02T15:25:51.863Z,100146.75
2023-07-02T15:28:18.862Z,100142.38
2023-07-02T15:30:45.396Z,100145.97
2023-07-02T15:33:11.999Z,100139.75
2023-07-02T15:35:38.455Z,100144.22
2023-07-02T15:38:05.053Z,100142.50
2023-07-02T15:40:32.230Z,100139.91
2023-07-02T15:42:58.778Z,100133.66
2023-07-02T15:45:26.455Z,100134.53
2023-07-02T15:47:53.116Z,100137.97
2023-07-02T15:50:19.700Z,100135.34
2023-07-02T15:52:46.224Z,100135.34
2023-07-02T15:55:12.812Z,100130.13
2023-07-02T15:57:39.265Z,100131.91
2023-07-02T16:00:07.076Z,100130.16
2023-07-02T16:02:36.871Z,100125.72
2023-07-02T16:05:10.595Z,100133.66
2023-07-02T16:07:37.288Z,100128.31
2023-07-02T16:10:06.118Z,100125.63
2023-07-02T16:12:41.452Z,100124.72
2023-07-02T16:15:08.383Z,100123.00
2023-07-02T16:17:35.083Z,100123.03
2023-07-02T16:20:01.887Z,100125.63
2023-07-02T16:22:31.342Z,100128.34
2023-07-02T16:24:57.951Z,100132.72
2023-07-02T16:27:24.465Z,100138.06
2023-07-02T16:29:57.156Z,100138.97
2023-07-02T16:32:30.448Z,100128.34
2023-07-02T16:35:04.368Z,100138.00
2023-07-02T16:37:30.909Z,100139.78
2023-07-02T16:39:57.427Z,100137.13
2023-07-02T16:42:24.060Z,100144.19
2023-07-02T16:44:50.682Z,100138.91
2023-07-02T16:47:20.091Z,100140.66
2023-07-02T16:49:47.648Z,100133.59
2023-07-02T16:52:14.195Z,100136.22
2023-07-02T16:54:40.749Z,100137.09
2023-07-02T16:57:07.517Z,100138.84
2023-07-02T16:59:38.490Z,100135.31
2023-07-02T17:02:10.098Z,100140.63
2023-07-02T17:04:36.689Z,100143.25
2023-07-02T17:07:03.384Z,100140.56
2023-07-02T17:09:35.511Z,100138.78
2023-07-02T17:12:04.385Z,100131.66
2023-07-02T17:14:34.299Z,100132.53
2023-07-02T17:17:03.498Z,100124.56
2023-07-02T17:19:36.014Z,100126.34
2023-07-02T17:22:05.163Z,100129.94
2023-07-02T17:24:34.570Z,100134.38
2023-07-02T17:27:02.353Z,100129.06
2023-07-02T17:29:32.360Z,100130.84
2023-07-02T17:32:01.827Z,100136.13
2023-07-02T17:34:30.103Z,100133.47
2023-07-02T17:36:58.938Z,100130.81
2023-07-02T17:39:27.807Z,100125.50
2023-07-02T17:41:55.740Z,100129.88
2023-07-02T17:44:28.081Z,100129.88
2023-07-02T17:47:01.273Z,100126.28
2023-07-02T17:49:29.177Z,100128.03
2023-07-02T17:51:56.066Z,100123.56
2023-07-02T17:54:23.633Z,100135.03
2023-07-02T17:56:51.869Z,100140.38
2023-07-02T17:59:19.532Z,100134.25
2023-07-02T18:01:51.324Z,100128.91
2023-07-02T18:04:18.989Z,100138.56
2023-07-02T18:06:47.061Z,100133.25
2023-07-02T18:09:16.630Z,100133.25
2023-07-02T18:11:43.491Z,100139.38
2023-07-02T18:14:10.293Z,100137.63
2023-07-02T18:16:36.970Z,100142.91
2023-07-02T18:19:03.600Z,100139.38
2023-07-02T18:21:30.974Z,100127.88
2023-07-02T18:23:59.408Z,100136.69
2023-07-02T18:26:26.052Z,100135.81
2023-07-02T18:28:52.638Z,100137.56
2023-07-02T18:31:20.053Z,100126.00
2023-07-02T18:33:46.722Z,100118.91
2023-07-02T18:36:16.079Z,100125.03
2023-07-02T18:38:42.975Z,100124.03
2023-07-02T18:41:11.456Z,100125.75
2023-07-02T18:43:38.416Z,100123.97
2023-07-02T18:46:06.341Z,100117.78
2023-07-02T18:48:33.603Z,100124.88
2023-07-02T18:51:00.072Z,100125.75
2023-07-02T18:53:26.599Z,100124.78
2023-07-02T18:56:01.335Z,100132.59
2023-07-02T18:58:28.916Z,100138.63
2023-07-02T19:00:55.608Z,100141.16
2023-07-02T19:03:22.566Z,100134.94
2023-07-02T19:05:50.843Z,100134.03
2023-07-02T19:08:19.273Z,100148.94
2023-07-02T19:10:46.717Z,100148.06
2023-07-02T19:13:14.626Z,100148.94
2023-07-02T19:15:41.332Z,100148.00
2023-07-02T19:18:08.282Z,100161.13
2023-07-02T19:20:35.723Z,100156.63
2023-07-02T19:23:02.272Z,100160.09
2023-07-02T19:25:28.791Z,100159.13
2023-07-02T19:27:55.311Z,100169.59
2023-07-02T19:30:21.802Z,100163.38
2023-07-02T19:32:48.510Z,100170.41
2023-07-02T19:35:16.965Z,100175.66
2023-07-02T19:37:43.413Z,100185.28
2023-07-02T19:40:10.143Z,100183.53
2023-07-02T19:42:36.689Z,100191.47
2023-07-02T19:45:04.225Z,100192.34
2023-07-02T19:47:31.478Z,100202.00
2023-07-02T19:49:59.851Z,100200.22
2023-07-02T19:52:28.761Z,100202.81
2023-07-02T19:55:15.974Z,100201.91
2023-07-02T19:57:42.548Z,100199.22
2023-07-02T20:00:09.770Z,100204.44
2023-07-02T20:02:37.765Z,100205.13
2023-07-02T20:05:08.203Z,100204.16
2023-07-02T20:07:35.124Z,100205.84
2023-07-02T20:10:01.999Z,100208.47
2023-07-02T20:12:31.374Z,100209.41
2023-07-02T20:15:00.126Z,100211.13
2023-07-02T20:17:29.536Z,100219.03
2023-07-02T20:19:57.801Z,100234.75
2023-07-02T20:22:24.602Z,100241.28
2023-07-02T20:24:51.694Z,100246.28
2023-07-02T20:27:21.071Z,100251.25
2023-07-02T20:29:52.313Z,100247.56
2023-07-02T20:32:20.491Z,100256.28
2023-07-02T20:34:50.929Z,100252.56
2023-07-02T20:37:22.192Z,100250.72
2023-07-02T20:39:49.134Z,100258.63
2023-07-02T20:42:19.119Z,100259.50
2023-07-02T20:44:52.123Z,100263.16
2023-07-02T20:47:20.028Z,100264.03
2023-07-02T20:49:50.684Z,100269.25
2023-07-02T20:52:18.451Z,100275.22
2023-07-02T20:54:45.266Z,100271.53
2023-07-02T20:57:12.889Z,100275.56
2023-07-02T20:59:39.342Z,100280.59
2023-07-02T21:02:05.854Z,100276.94
2023-07-02T21:04:32.324Z,100281.31
2023-07-02T21:06:58.839Z,100282.25
2023-07-02T21:09:27.147Z,100285.75
2023-07-02T21:11:53.627Z,100277.66
2023-07-02T21:14:20.053Z,100281.00
2023-07-02T21:16:49.912Z,100283.59
2023-07-02T21:19:17.682Z,100290.66
2023-07-02T21:21:47.036Z,100292.41
2023-07-02T21:24:14.725Z,100288.84
2023-07-02T21:26:41.230Z,100290.50
2023-07-02T21:29:07.763Z,100293.88
2023-07-02T21:31:34.943Z,100305.31
2023-07-02T21:34:02.235Z,100293.19
2023-07-02T21:36:28.699Z,100296.66
2023-07-02T21:38:55.155Z,100298.28
2023-07-02T21:41:21.591Z,100292.97
2023-07-02T21:43:48.126Z,100298.94
2023-07-02T21:46:14.904Z,100305.66
2023-07-02T21:48:41.453Z,100313.41
2023-07-02T21:51:07.965Z,100310.69
2023-07-02T21:53:34.434Z,100311.63
2023-07-02T21:56:00.988Z,100309.72
2023-07-02T21:58:27.638Z,100313.13
2023-07-02T22:00:54.078Z,100312.25
2023-07-02T22:03:20.542Z,100317.41
2023-07-02T22:05:52.563Z,100320.16
2023-07-02T22:08:19.406Z,100309.94
2023-07-02T22:10:46.955Z,100319.66
2023-07-02T22:13:13.485Z,100322.94
2023-07-02T22:15:40.108Z,100320.97
2023-07-02T22:18:06.703Z,100321.88
2023-07-02T22:20:35.582Z,100326.88
2023-07-02T22:23:03.305Z,100324.13
2023-07-02T22:25:29.924Z,100325.84
2023-07-02T22:27:56.857Z,100331.06
2023-07-02T22:30:23.754Z,100318.63
2023-07-02T22:32:50.964Z,100324.56
2023-07-02T22:35:18.336Z,100322.19
2023-07-02T22:37:46.136Z,100330.13
2023-07-02T22:40:16.182Z,100329.00
2023-07-02T22:42:43.436Z,100322.25
2023-07-02T22:45:12.376Z,100330.88
2023-07-02T22:47:39.619Z,100336.75
2023-07-02T22:50:07.114Z,100333.88
2023-07-02T22:52:35.448Z,100325.25
2023-07-02T22:55:02.718Z,100329.56
2023-07-02T22:57:32.818Z,100324.13
2023-07-02T23:00:01.057Z,100328.69
2023-07-02T23:02:29.360Z,100320.13
2023-07-02T23:04:55.945Z,100322.00
2023-07-02T23:07:22.459Z,100328.22
2023-07-02T23:09:48.999Z,100317.03
2023-07-02T23:12:15.462Z,100322.44
2023-07-02T23:14:41.896Z,100320.75
2023-07-02T23:17:08.461Z,100317.25
2023-07-02T23:19:35.680Z,100318.31
2023-07-02T23:22:02.873Z,100314.75
2023-07-02T23:24:30.123Z,100316.56
2023-07-02T23:26:56.990Z,100316.69
2023-07-02T23:29:25.141Z,100313.94
2023-07-02T23:31:51.922Z,100310.53
2023-07-02T23:34:18.682Z,100311.19
2023-07-02T23:36:48.095Z,100313.69
2023-07-02T23:39:15.489Z,100306.81
2023-07-02T23:41:42.417Z,100306.66
2023-07-02T23:44:10.782Z,100309.22
2023-07-02T23:46:39.013Z,100319.53
2023-07-02T23:49:05.746Z,100323.00
2023-07-02T23:51:32.402Z,100322.03
2023-07-02T23:53:58.873Z,100317.59
2023-07-02T23:56:25.321Z,100322.56
2023-07-02T23:58:51.851Z,100319.06
